David Acosta

Recruteur en chef - Seattle Sounders
30 Sept 2027
Jeudi
Processus

Personnalité

Adaptabilité (8) Ambition (19) Controverse (18) Loyauté (1) Pression (9) Professionnalisme (5) Sportivité (17) Tempérament (1)

Profil

Style d'entraînement Démocratique
Diplôme National B
Détermination 13
Gestion des joueurs 8
Motivation 13
Discipline 8
Satisfaction professionnelle
98%
Fatigue
0%
Rôle Recruteur en chef
Salaire 21.9K p/s
Contrat 14.03.2028

Performance

Comportement Bon
Efficacité de l'entraînement
45%
Développement des joueurs
65%
Prévention des blessures
65%
Mise en place tactique
55%

Événements récents

A évalué un joueur maintenant
A participé à une réunion de recrutement maintenant
A recommandé une cible de transfert maintenant
A recommandé une cible de transfert maintenant
A recommandé une cible de transfert maintenant
A participé à une réunion de recrutement maintenant
A recommandé une cible de transfert maintenant
A participé à une réunion de recrutement maintenant

Suivi en cours

181
Joueur Club Statut Capacité Confiance Observé Dernière observation Dernier vote
Steven Alzate Atlanta United FC Actif 124 / 122 40% 2 29.09.2027 -
Emanuel Coronel Rosario Central Actif 133 / 113 40% 1 29.09.2027 -
Leandro Lozano Boca Juniors Actif 131 / 138 40% 1 29.09.2027 -
Lukas Engel Real Salt Lake Actif 123 / 131 40% 3 27.09.2027 -
Aaron Herrera Charlotte Football Club Actif 125 / 118 40% 2 27.09.2027 -
Sergio Reguilón Inter Miami CF Actif 135 / 127 40% 1 27.09.2027 -
Miguel Navarro Colorado Rapids Actif 121 / 117 40% 2 25.09.2027 -
Tomás Escalante Plaza Colonia Actif 124 / 129 40% 3 25.09.2027 -
Alhassan Yusuf New England Revolution Actif 131 / 119 40% 1 25.09.2027 -
Bruno Leyes Godoy Cruz Actif 131 / 115 40% 1 23.09.2027 -
Bryan Ramírez FC Cincinnati Actif 136 / 125 40% 3 22.09.2027 -
Teboho Mokoena Independiente Actif 133 / 130 40% 2 22.09.2027 -
Ho-yeon Jung Minnesota United FC Actif 123 / 127 40% 3 21.09.2027 -
Juan Manuel Sanabria Real Salt Lake Actif 126 / 129 40% 2 21.09.2027 -
Obinna Nwobodo FC Cincinnati Actif 129 / 118 40% 1 21.09.2027 -
Marcelo Saracchi Houston Dynamo Actif 129 / 120 40% 2 20.09.2027 -
Lucas Halter Houston Dynamo Actif 123 / 130 40% 1 19.09.2027 -
Nahuel Herrera Penarol Actif 124 / 141 40% 3 18.09.2027 -
Mateo Mendoza Godoy Cruz Actif 123 / 131 40% 1 18.09.2027 -
Loïc Williams Colorado Rapids Actif 131 / 127 40% 1 18.09.2027 -
Gonzalo Abrego Godoy Cruz Actif 128 / 123 40% 2 15.09.2027 -
Federico Pereira Estudiantes Actif 135 / 149 40% 1 15.09.2027 -
Anton Salétros Chicago Fire Actif 125 / 126 40% 1 15.09.2027 -
Lasse Berg Johnsen Sporting Kansas City Actif 127 / 126 40% 1 14.09.2027 -
Facundo Mura Inter Miami CF Actif 132 / 134 40% 1 11.09.2027 -
Leonardo Borja La Equidad Actif 149 / 144 40% 1 11.09.2027 -
Lucas Sanabria LA Galaxy Actif 135 / 136 40% 1 09.09.2027 -
Franco Ibarra Rosario Central Actif 126 / 122 40% 1 09.09.2027 -
Emiliano Álvarez Progreso Actif 126 / 134 40% 1 09.09.2027 -
Vicente Poggi Godoy Cruz Actif 130 / 117 40% 2 08.09.2027 -
Lucas Souto Defensa y Justicia Actif 125 / 114 40% 1 08.09.2027 -
Mauro Arambarri River Plate Actif 150 / 160 40% 1 06.09.2027 -
Brooke Norton-Cuffy Inter Miami CF Actif 141 / 131 40% 1 06.09.2027 -
Callum Brittain Middlesbrough Actif 132 / 129 40% 2 07.07.2027 -
Toby Collyer West Bromwich Albion Actif 132 / 132 40% 1 07.07.2027 -
Noah Sadiki Sunderland Actif 149 / 157 40% 1 07.07.2027 -
Riley McGree Middlesbrough Actif 133 / 129 40% 1 22.02.2027 -
Facundo Torres LOSC Lille Négociation 134 / 134 67% 1 14.02.2027 Approuver
Stanislav Agkatsev Sunderland Négociation 132 / 133 66% 1 14.02.2027 Approuver
Bitello SC Freiburg Actif 135 / 135 68% 1 14.02.2027 Approuver
Luiz Henrique West Ham United Actif 142 / 143 68% 1 14.02.2027 Approuver
Nordi Mukiele Sunderland Actif 146 / 138 40% 3 13.02.2027 -
Ethan Galbraith Swansea City Actif 130 / 125 40% 1 13.02.2027 -
Leif Davis Ipswich Town Actif 142 / 139 40% 1 13.02.2027 -
Gianmarco Vannucchi Benevento Actif 118 / 114 40% 2 12.02.2027 -
Jamie Cumming Oxford United Actif 121 / 118 40% 2 12.02.2027 -
Vladan Kovačević Norwich City Actif 117 / 112 40% 2 12.02.2027 -
Óscar Mingueza Crystal Palace Actif 147 / 143 40% 1 12.02.2027 -
Shea Charles Southampton Actif 136 / 129 40% 1 12.02.2027 -
Nikola Vasilj Al-Diriyah Actif 140 / 150 40% 7 10.02.2027 -
Radek Vítek Middlesbrough Actif 138 / 142 40% 2 10.02.2027 -
Daniel Iversen Preston Actif 127 / 132 40% 3 09.02.2027 -
James Trafford Leeds United Actif 141 / 138 40% 1 09.02.2027 -
Georginio Rutter Brighton Actif 152 / 150 40% 1 09.02.2027 -
Zack Steffen Spartak Moscow Actif 138 / 144 40% 9 07.02.2027 -
Derry Murkin Derby County Actif 131 / 128 40% 2 07.02.2027 -
Jacques Ekomié Wrexham Actif 126 / 127 40% 2 07.02.2027 -
Jacob Widell Zetterström Derby County Actif 126 / 121 40% 2 07.02.2027 -
Xaver Schlager Nottingham Forest Actif 151 / 150 40% 1 07.02.2027 -
Balázs Tóth Blackburn Rovers Actif 127 / 129 40% 2 05.02.2027 -
Egil Selvik Watford Actif 122 / 126 40% 2 05.02.2027 -
Caoimhin Kelleher Brentford Actif 154 / 144 40% 1 05.02.2027 -
Denis Adamov Zenit Actif 130 / 126 40% 7 03.02.2027 -
Arijanet Murić Sassuolo Actif 140 / 142 40% 5 03.02.2027 -
Michael Cooper Sheffield United Actif 135 / 122 40% 1 03.02.2027 -
Maílson Al-Taawoun Actif 127 / 129 40% 6 02.02.2027 -
Nicolas Schmid Portsmouth Actif 120 / 127 40% 3 02.02.2027 -
Hany Mukhtar Spezia Actif 135 / 143 40% 1 02.02.2027 -
Ilyas Ansah Hull City Actif 125 / 139 40% 1 02.02.2027 -
Bento Al-Nassr Actif 134 / 147 40% 8 01.02.2027 Observer
Michele Cerofolini Bari Actif 126 / 121 40% 2 30.01.2027 -
Grégoire Coudert Burnley Actif 127 / 131 40% 2 30.01.2027 -
Welington Southampton Actif 128 / 129 40% 2 30.01.2027 -
Dean Henderson Crystal Palace Actif 150 / 150 40% 1 26.01.2027 -
Justin Bijlow Genoa Actif 144 / 151 40% 3 25.01.2027 -
Robin Roefs Sunderland Actif 146 / 145 40% 1 25.01.2027 -
Wladimiro Falcone Lecce Actif 141 / 138 40% 2 24.01.2027 -
Michael Kayode Brentford Actif 146 / 148 40% 1 24.01.2027 -
Rob Atkinson Bristol City Actif 124 / 129 40% 1 24.01.2027 -
Ross McCrorie Bristol City Actif 126 / 124 40% 1 24.01.2027 -
João Virgínia Wolverhampton Actif 126 / 130 40% 1 24.01.2027 -
Rico Lewis Manchester City Actif 145 / 149 40% 1 22.01.2027 -
Nathan Collins Brentford Actif 142 / 148 40% 1 22.01.2027 -
Simone Scuffet Pisa Actif 133 / 130 40% 1 21.01.2027 -
Dayne St. Clair Inter Miami CF Actif 122 / 117 40% 3 19.01.2027 -
Kyrylo Fesiun Shakhtar Actif 126 / 108 40% 4 19.01.2027 -
Rubens Dinamo Moscow Actif 126 / 137 40% 2 17.01.2027 -
Lorenzo Palmisani Frosinone Actif 123 / 132 40% 1 15.01.2027 -
Matt Freese New York City Actif 130 / 135 40% 8 14.01.2027 -
Iván Arboleda Sarmiento Actif 125 / 125 40% 3 14.01.2027 -
Facundo Cambeses Racing Club Actif 133 / 118 40% 3 14.01.2027 -
Yacine Adli Al-Shabab Actif 143 / 146 40% 1 13.01.2027 -
Nadir Zortea Bologna Actif 138 / 131 40% 1 13.01.2027 -
Emiliano González Almagro Actif 111 / 117 40% 1 12.01.2027 -
Raoul Bellanova Atalanta Actif 146 / 153 40% 1 09.01.2027 -
Santiago Silva CFR Cluj Actif 118 / 126 40% 3 08.01.2027 -
Maduka Okoye Udinese Actif 136 / 139 40% 2 07.01.2027 -
Musa Barrow Al-Khaleej Actif 134 / 143 40% 3 05.01.2027 -
Giacomo Raspadori Atalanta Actif 150 / 152 40% 1 05.01.2027 -
Ola Brynhildsen Bodo/Glimt Actif 129 / 137 40% 1 05.01.2027 -
Tomás Marchiori Vélez Actif 124 / 123 40% 1 03.01.2027 -
Patrick Schulte Columbus Crew Actif 119 / 116 40% 8 30.12.2026 -
Gustavo Mantuan Zenit Actif 140 / 132 40% 3 30.12.2026 -
Alessandro Buongiorno Sassuolo Actif 155 / 147 40% 1 30.12.2026 -
Nicolás Sumavil Platense Actif 115 / 130 40% 1 30.12.2026 -
Nicolás Fernández Mercau Shakhtar Négociation 137 / 129 40% 2 28.12.2026 Plus d'infos
Josh Doig Sassuolo Actif 134 / 134 40% 1 28.12.2026 -
Conrad Wallem Austria Wien Actif 124 / 131 40% 2 26.12.2026 -
Myrto Uzuni Austin FC Actif 134 / 124 40% 5 25.12.2026 -
Youssef En-Nesyri Al-Ittihad Actif 137 / 139 40% 6 25.12.2026 -
Ivan Toney Al-Ahli Actif 151 / 137 40% 3 25.12.2026 -
Dominik Takáč Slovan Bratislava Actif 122 / 117 40% 4 23.12.2026 -
Sipho Chaine Orlando Pirates Actif 116 / 120 40% 5 21.12.2026 -
Nobel Mendy Hull City Actif 132 / 133 40% 4 18.12.2026 -
Drake Callender Minnesota United FC Actif 119 / 126 40% 6 18.12.2026 -
Daniil Khudyakov Sturm Graz Actif 124 / 123 40% 2 18.12.2026 -
Samú Al-Nassr Actif 139 / 155 40% 3 18.12.2026 -
Roman Celentano FC Cincinnati Actif 126 / 115 40% 3 17.12.2026 -
Luis Ingolotti Atlético Tucumán Actif 127 / 131 40% 2 17.12.2026 -
Doğucan Haspolat Westerlo Actif 120 / 130 40% 1 17.12.2026 -
Victor Parada Spartak Moscow Actif 121 / 128 40% 1 17.12.2026 -
Lovre Rogić HNK Rijeka Actif 114 / 131 40% 1 16.12.2026 -
Roberto Ramírez Godoy Cruz Actif 111 / 123 40% 3 14.12.2026 -
Mateusz Kochalski Dynamo Kyiv Actif 130 / 143 40% 3 11.12.2026 -
Martin Zlomislić Qarabag Actif 118 / 112 40% 3 10.12.2026 -
José Devecchi San Lorenzo Actif 125 / 126 40% 3 10.12.2026 -
Marlon Gomes Shakhtar Actif 141 / 131 40% 1 10.12.2026 -
Angus Gunn San Jose Earthquakes Actif 124 / 113 40% 3 09.12.2026 -
Maxim De Cuyper Brighton Actif 142 / 143 40% 3 08.12.2026 -
Mohamed Simakan Al-Nassr Actif 145 / 146 40% 1 08.12.2026 -
João Gomes Aston Villa Actif 138 / 144 40% 2 06.12.2026 -
Luka Kurtovic NK Domzale Actif 133 / 139 40% 1 05.12.2026 -
Rúben Neves Al-Hilal Actif 151 / 163 40% 2 02.12.2026 -
Oleksandr Pikhalionok Dynamo Kyiv Actif 129 / 120 40% 1 02.12.2026 -
Lucas Acosta Aldosivi Actif 123 / 123 40% 1 28.11.2026 -
Joaquín García Vélez Actif 123 / 119 40% 1 26.11.2026 -
Francisco Álvarez Argentinos Juniors Actif 126 / 118 40% 1 26.11.2026 -
Ignacio Chicco Aldosivi Actif 117 / 107 40% 1 23.11.2026 -
Bradley Tau SuperSport United Actif 132 / 134 40% 3 21.11.2026 -
Gabriel Jesus Barcelona Actif 157 / 157 40% 7 20.11.2026 -
Matevž Vidovšek Olimpija Ljubljana Actif 124 / 109 40% 1 20.11.2026 -
Rômulo RB Leipzig Actif 140 / 149 40% 1 20.11.2026 -
Konstantin Tyukavin Inter Négociation 130 / 137 40% 1 20.11.2026 Plus d'infos
Lucas Bruera Carabobo Actif 125 / 127 40% 1 18.11.2026 -
Diego Romero Universitario Actif 114 / 128 40% 2 17.11.2026 -
Oscar Hedvall Valerenga Actif 123 / 119 40% 1 16.11.2026 -
Serge-Philippe Raux-Yao Rapid Wien Actif 122 / 119 40% 1 16.11.2026 -
Danil Glebov Dinamo Moscow Actif 133 / 128 40% 1 16.11.2026 -
Abduvohid Ne'matov Nasaf Actif 118 / 115 40% 1 16.11.2026 -
Théo Hernández Al-Hilal Actif 143 / 138 40% 1 09.11.2026 -
João Victor CSKA Moscow Actif 125 / 131 40% 1 09.11.2026 -
Mandla Erasmus SuperSport United Actif 121 / 117 40% 1 08.11.2026 -
Pedro Bicalho Qarabag Actif 126 / 135 40% 1 07.11.2026 -
Felipe Augusto Zenit Actif 135 / 125 40% 2 05.11.2026 -
Steven Bergwijn Al-Ittihad Actif 139 / 145 40% 4 05.11.2026 -
Omri Glazer Maccabi Haifa Actif 122 / 128 40% 4 03.11.2026 -
Filip Kaloč Ludogorets Actif 128 / 131 40% 1 03.11.2026 -
Fahad Hassan Al Shabab Actif 114 / 127 40% 1 31.10.2026 -
Álvaro Fernández Mallorca Actif 135 / 139 40% 1 26.10.2026 -
Mojmír Chytil NK Maribor Actif 128 / 128 40% 3 25.10.2026 -
Luciano Gondou CSKA Moscow Actif 135 / 126 40% 1 25.10.2026 -
Renato Solís Sporting Cristal Actif 128 / 128 40% 2 23.10.2026 -
Pep Biel Charlotte Football Club Actif 124 / 120 40% 2 21.10.2026 -
Ştefan Târnovanu FCSB Actif 120 / 117 40% 1 19.10.2026 -
Breel Embolo Atlanta United FC Actif 138 / 130 40% 4 15.10.2026 -
Julián Quiñones Lokomotiv Moscow Actif 140 / 158 40% 6 13.10.2026 -
Karim Konaté Red Bull Salzburg Actif 130 / 138 40% 3 13.10.2026 -
Chuchu Ramírez Nacional Actif 134 / 129 40% 1 13.10.2026 -
Adrián Marín Persepolis Actif 121 / 139 40% 2 11.10.2026 -
Mohamed Ali Ben Romdhane Al Ahly Actif 130 / 138 40% 1 11.10.2026 -
Martín Ojeda Orlando City Actif 136 / 129 40% 4 10.10.2026 -
Manfred Ugalde Spartak Moscow Actif 132 / 142 40% 5 10.10.2026 -
Jordan Lotomba Bloemfontein Celtic Actif 122 / 124 40% 1 10.10.2026 -
Japhet Sery Larsen Philadelphia Union Actif 120 / 115 40% 1 08.10.2026 -
Miles Robinson FC Cincinnati Actif 137 / 127 40% 1 06.10.2026 -
Moussa Dembélé CR Belouizdad Actif 124 / 120 40% 2 02.10.2026 -
Kein Sato FC Tokyo Actif 129 / 118 40% 2 27.09.2026 -
Wessam Abou Ali Columbus Crew Actif 123 / 120 40% 2 21.09.2026 Plus d'infos
Alexandr Sobolev Zenit Actif 120 / 122 40% 2 15.09.2026 -
Andile Manyama SuperSport United Actif 133 / 131 40% 1 14.09.2026 -
Kai Wagner Philadelphia Union Actif 126 / 120 40% 1 07.09.2026 -